Time;durP1;ratioP1;P1;durP2;ratioP2;P2;SDS_P1;SDS_P2;PMS_P1;PMS_P2;Temp;Humidity;BMP_temperature;BMP_pressure;BME280_temperature;BME280_humidity;BME280_pressure;Samples;Min_cycle;Max_cycle;Signal;HPM_P1;HPM_P2
2022/09/10 00:01:33;;;;;;;2.08;0.70;;;16.80;60.80;;;;;;5085111;28;20052;-63
2022/09/10 00:04:00;;;;;;;1.75;0.70;;;16.80;60.80;;;;;;5087445;28;20032;-63
2022/09/10 00:06:27;;;;;;;4.05;1.00;;;16.80;60.80;;;;;;5095303;28;20459;-62
2022/09/10 00:08:57;;;;;;;1.60;0.68;;;16.80;60.80;;;;;;5090686;28;20029;-64
2022/09/10 00:11:24;;;;;;;2.05;0.77;;;16.80;61.10;;;;;;5076421;28;20025;-64
2022/09/10 00:13:50;;;;;;;1.98;0.80;;;16.90;61.00;;;;;;5089051;28;20122;-63
2022/09/10 00:16:20;;;;;;;2.35;0.82;;;16.90;61.00;;;;;;5078059;28;20032;-63
2022/09/10 00:18:47;;;;;;;2.30;0.80;;;16.80;60.90;;;;;;5090285;28;20028;-63
2022/09/10 00:21:16;;;;;;;2.10;0.70;;;16.80;61.00;;;;;;5079460;28;20036;-63
2022/09/10 00:23:45;;;;;;;6.10;0.90;;;16.80;61.10;;;;;;5093613;28;20032;-63
2022/09/10 00:26:23;;;;;;;1.27;0.65;;;16.80;61.10;;;;;;5088117;28;20552;-62
2022/09/10 00:28:51;;;;;;;0.63;0.50;;;16.80;61.50;;;;;;5084633;28;20127;-64
2022/09/10 00:31:19;;;;;;;1.52;0.60;;;16.70;61.10;;;;;;5081649;28;20041;-64
2022/09/10 00:33:44;;;;;;;2.70;0.85;;;16.70;61.40;;;;;;5076691;28;22047;-64
2022/09/10 00:36:31;;;;;;;0.88;0.50;;;16.70;61.60;;;;;;5082774;28;20084;-62
2022/09/10 00:38:59;;;;;;;4.07;0.80;;;16.70;62.50;;;;;;5079959;28;20028;-63
2022/09/10 00:41:25;;;;;;;2.25;0.70;;;16.70;61.60;;;;;;5086426;28;20025;-62
2022/09/10 00:44:01;;;;;;;3.25;0.98;;;16.70;61.80;;;;;;5106870;28;20066;-63
2022/09/10 00:46:32;;;;;;;2.05;0.70;;;16.70;62.60;;;;;;5082671;28;20387;-61
2022/09/10 00:49:02;;;;;;;1.77;0.75;;;16.70;62.00;;;;;;5092472;28;20012;-63
2022/09/10 00:51:31;;;;;;;9.50;0.73;;;16.70;62.20;;;;;;4975906;28;20028;-62
2022/09/10 00:53:58;;;;;;;1.50;0.50;;;16.70;62.30;;;;;;5086609;28;20035;-62
2022/09/10 00:56:24;;;;;;;4.07;0.88;;;16.80;62.40;;;;;;5068737;28;20060;-63
2022/09/10 00:58:51;;;;;;;5.85;0.98;;;16.80;62.30;;;;;;5082983;28;20032;-62
2022/09/10 01:01:18;;;;;;;1.60;0.60;;;16.80;62.40;;;;;;5068274;28;20032;-62
2022/09/10 01:03:44;;;;;;;3.50;0.55;;;16.80;62.40;;;;;;5071191;28;20119;-62
2022/09/10 01:06:11;;;;;;;1.27;0.60;;;16.80;62.50;;;;;;5091519;28;20051;-61
2022/09/10 01:08:37;;;;;;;2.15;0.63;;;16.90;62.40;;;;;;5086949;28;20030;-61
2022/09/10 01:11:17;;;;;;;3.17;0.60;;;16.90;62.30;;;;;;5076161;28;20107;-62
2022/09/10 01:13:55;;;;;;;1.50;0.75;;;16.90;62.60;;;;;;5079711;28;20025;-62
2022/09/10 01:16:36;;;;;;;3.30;0.75;;;16.90;63.10;;;;;;5087440;28;20048;-62
2022/09/10 01:19:20;;;;;;;2.90;0.88;;;16.90;62.70;;;;;;5073341;28;20033;-62
2022/09/10 01:22:26;;;;;;;1.20;0.50;;;16.90;63.10;;;;;;5105956;28;20028;-63
2022/09/10 01:25:02;;;;;;;1.77;0.60;;;17.00;63.10;;;;;;5042758;28;20037;-62
2022/09/10 01:27:36;;;;;;;2.15;0.63;;;16.90;62.50;;;;;;5037486;28;20049;-63
2022/09/10 01:30:19;;;;;;;2.75;0.60;;;16.90;62.70;;;;;;5037662;28;20113;-63
2022/09/10 01:33:24;;;;;;;0.70;0.60;;;16.90;62.80;;;;;;5032822;28;20045;-63
2022/09/10 01:36:00;;;;;;;3.95;0.90;;;16.90;63.40;;;;;;5002875;28;20081;-63
2022/09/10 01:38:40;;;;;;;4.53;0.90;;;16.90;63.60;;;;;;5018452;28;20177;-63
2022/09/10 01:41:07;;;;;;;2.65;0.80;;;16.80;62.60;;;;;;5003430;28;20830;-63
2022/09/10 01:43:33;;;;;;;7.50;0.80;;;16.80;62.40;;;;;;5004552;28;20105;-62
2022/09/10 01:46:29;;;;;;;1.85;0.70;;;16.80;62.40;;;;;;5007057;28;20050;-62
2022/09/10 01:49:30;;;;;;;3.75;0.82;;;16.70;63.10;;;;;;5017131;28;20026;-62
2022/09/10 01:52:24;;;;;;;2.55;0.80;;;16.70;62.30;;;;;;4975690;28;20070;-63
2022/09/10 01:55:29;;;;;;;5.78;0.80;;;16.70;62.90;;;;;;4970667;28;20045;-62
2022/09/10 01:58:18;;;;;;;1.15;0.50;;;16.60;63.30;;;;;;4985402;28;20108;-62
2022/09/10 02:00:54;;;;;;;0.60;0.57;;;16.60;63.00;;;;;;5001016;28;20044;-63
2022/09/10 02:03:24;;;;;;;1.83;0.60;;;16.60;62.90;;;;;;4984208;28;20624;-63
2022/09/10 02:05:52;;;;;;;1.90;0.75;;;16.50;63.00;;;;;;5001395;28;20692;-63
2022/09/10 02:08:25;;;;;;;2.40;0.63;;;16.50;63.10;;;;;;5002280;28;20038;-61
2022/09/10 02:10:52;;;;;;;3.40;0.60;;;16.50;63.40;;;;;;5033023;28;20050;-62
2022/09/10 02:13:19;;;;;;;3.10;0.57;;;16.40;63.40;;;;;;5042785;28;20053;-62
2022/09/10 02:15:45;;;;;;;4.10;0.63;;;16.40;63.40;;;;;;5039287;28;20053;-62
2022/09/10 02:18:11;;;;;;;3.33;0.80;;;16.40;63.50;;;;;;5042544;28;20048;-61
2022/09/10 02:20:37;;;;;;;2.60;0.80;;;16.40;63.50;;;;;;5041946;28;20033;-62
2022/09/10 02:23:05;;;;;;;3.25;0.80;;;16.40;63.70;;;;;;5041925;28;20572;-62
2022/09/10 02:25:33;;;;;;;2.15;0.63;;;16.40;63.80;;;;;;5044854;28;20037;-61
2022/09/10 02:27:59;;;;;;;1.67;0.40;;;16.40;63.90;;;;;;5058097;28;20036;-62
2022/09/10 02:30:25;;;;;;;0.85;0.50;;;16.30;63.90;;;;;;5083612;28;20036;-62
2022/09/10 02:32:50;;;;;;;2.38;0.63;;;16.40;64.20;;;;;;5092123;28;20041;-61
2022/09/10 02:35:16;;;;;;;1.08;0.60;;;16.40;64.20;;;;;;5089328;28;20070;-63
2022/09/10 02:37:42;;;;;;;1.00;0.60;;;16.40;64.30;;;;;;5090670;28;20056;-63
2022/09/10 02:40:09;;;;;;;3.80;0.80;;;16.40;64.30;;;;;;5089882;28;20029;-63
2022/09/10 02:42:37;;;;;;;1.70;0.63;;;16.40;64.40;;;;;;5100801;28;20039;-61
2022/09/10 02:45:03;;;;;;;1.60;0.70;;;16.40;64.30;;;;;;5076370;28;20066;-62
2022/09/10 02:47:29;;;;;;;2.70;0.55;;;16.40;64.40;;;;;;5102015;28;20035;-62
2022/09/10 02:49:55;;;;;;;3.45;0.68;;;16.40;64.40;;;;;;5086911;28;20021;-62
2022/09/10 02:52:20;;;;;;;1.27;0.57;;;16.40;64.50;;;;;;5094661;28;20055;-62
2022/09/10 02:54:47;;;;;;;2.40;0.63;;;16.40;64.50;;;;;;5087691;28;20028;-63
2022/09/10 02:57:13;;;;;;;4.75;0.73;;;16.40;64.70;;;;;;5100430;28;20059;-61
2022/09/10 02:59:39;;;;;;;0.93;0.60;;;16.40;64.70;;;;;;5067036;28;20033;-63
2022/09/10 03:02:04;;;;;;;2.20;0.70;;;16.40;64.80;;;;;;5085203;28;20408;-63
2022/09/10 03:04:30;;;;;;;1.67;0.77;;;16.40;64.80;;;;;;5085960;28;20043;-62
2022/09/10 03:06:56;;;;;;;2.00;0.57;;;16.40;64.90;;;;;;5069027;28;20125;-64
2022/09/10 03:09:22;;;;;;;3.25;0.80;;;16.40;64.80;;;;;;5091684;28;20091;-62
2022/09/10 03:11:47;;;;;;;1.15;0.60;;;16.40;64.80;;;;;;5086770;28;20052;-63
2022/09/10 03:14:19;;;;;;;3.58;0.60;;;16.40;64.90;;;;;;5072909;28;20029;-63
2022/09/10 03:16:45;;;;;;;3.80;0.80;;;16.50;65.10;;;;;;5081087;28;20037;-64
2022/09/10 03:19:12;;;;;;;5.65;0.80;;;16.50;65.40;;;;;;5087451;28;20050;-62
2022/09/10 03:21:40;;;;;;;3.80;0.80;;;16.50;65.50;;;;;;5084228;28;20060;-62
2022/09/10 03:24:06;;;;;;;4.78;0.70;;;16.50;65.80;;;;;;5090520;28;20047;-61
2022/09/10 03:26:32;;;;;;;3.88;0.60;;;16.50;65.80;;;;;;5083388;28;20043;-61
2022/09/10 03:28:58;;;;;;;3.25;0.80;;;16.50;66.00;;;;;;5094913;28;20745;-62
2022/09/10 03:31:25;;;;;;;0.88;0.60;;;16.40;66.30;;;;;;5091062;28;20518;-62
2022/09/10 03:33:51;;;;;;;1.17;0.50;;;16.40;66.30;;;;;;5092205;28;20040;-61
2022/09/10 03:36:17;;;;;;;4.10;0.60;;;16.40;66.40;;;;;;5077219;28;20037;-61
2022/09/10 03:38:43;;;;;;;0.82;0.50;;;16.40;66.50;;;;;;5092570;28;20017;-60
2022/09/10 03:41:09;;;;;;;2.33;0.68;;;16.40;66.60;;;;;;5105339;28;20115;-62
2022/09/10 03:43:35;;;;;;;2.70;0.60;;;16.40;66.70;;;;;;5067184;28;20033;-60
2022/09/10 03:46:01;;;;;;;2.75;0.80;;;16.40;66.90;;;;;;5074878;28;20037;-62
2022/09/10 03:48:28;;;;;;;1.40;0.50;;;16.40;67.10;;;;;;5094835;28;20078;-60
2022/09/10 03:50:54;;;;;;;6.55;0.77;;;16.40;67.50;;;;;;5100490;28;20036;-61
2022/09/10 03:53:20;;;;;;;5.18;1.20;;;16.40;67.60;;;;;;5087598;28;20029;-62
2022/09/10 03:55:47;;;;;;;3.00;0.63;;;16.40;67.70;;;;;;5080405;28;20029;-62
2022/09/10 03:58:14;;;;;;;2.42;0.40;;;16.40;68.30;;;;;;5103040;28;20048;-62
2022/09/10 04:00:40;;;;;;;2.70;0.88;;;16.40;67.40;;;;;;5078509;28;20111;-62
2022/09/10 04:03:05;;;;;;;0.82;0.60;;;16.40;67.30;;;;;;5073629;28;20071;-60
2022/09/10 04:05:32;;;;;;;1.70;0.50;;;16.40;67.50;;;;;;5085442;28;20017;-62
2022/09/10 04:07:58;;;;;;;1.50;0.60;;;16.40;67.50;;;;;;5080757;28;20527;-62
2022/09/10 04:10:28;;;;;;;1.58;0.60;;;16.40;67.50;;;;;;5097946;28;20029;-62
2022/09/10 04:12:53;;;;;;;2.38;0.50;;;16.40;67.90;;;;;;5090352;28;20036;-60
2022/09/10 04:15:21;;;;;;;3.85;0.60;;;16.30;67.50;;;;;;5086398;28;20028;-62
2022/09/10 04:17:50;;;;;;;1.77;0.60;;;16.30;67.70;;;;;;5087819;28;20036;-60
2022/09/10 04:20:22;;;;;;;1.85;0.65;;;16.30;67.90;;;;;;5103787;28;20139;-60
2022/09/10 04:22:50;;;;;;;4.90;0.73;;;16.30;68.00;;;;;;5093522;28;20028;-61
2022/09/10 04:25:17;;;;;;;1.67;0.63;;;16.30;68.10;;;;;;5098112;28;20032;-61
2022/09/10 04:27:43;;;;;;;0.77;0.50;;;16.30;68.10;;;;;;5094758;28;20035;-61
2022/09/10 04:30:11;;;;;;;1.33;0.50;;;16.30;68.30;;;;;;5086542;28;20038;-61
2022/09/10 04:32:37;;;;;;;2.78;0.80;;;16.30;68.50;;;;;;5075172;28;20086;-61
2022/09/10 04:35:04;;;;;;;2.03;0.60;;;16.30;68.40;;;;;;5084327;28;20074;-61
2022/09/10 04:37:30;;;;;;;2.55;0.70;;;16.30;68.40;;;;;;5099342;28;20039;-60
2022/09/10 04:39:56;;;;;;;1.25;0.60;;;16.30;68.60;;;;;;5106474;28;20032;-61
2022/09/10 04:42:23;;;;;;;1.92;0.80;;;16.30;68.60;;;;;;5084016;28;20511;-62
2022/09/10 04:44:49;;;;;;;1.15;0.75;;;16.30;68.50;;;;;;5101197;28;20054;-61
2022/09/10 04:47:15;;;;;;;1.55;0.88;;;16.30;68.50;;;;;;5067121;28;20033;-61
2022/09/10 04:49:42;;;;;;;1.83;0.70;;;16.30;68.30;;;;;;5086626;28;20032;-61
2022/09/10 04:52:09;;;;;;;3.92;0.77;;;16.30;68.40;;;;;;5068584;28;20023;-62
2022/09/10 04:54:36;;;;;;;3.42;0.50;;;16.30;68.60;;;;;;5092014;28;20078;-60
2022/09/10 04:57:02;;;;;;;2.80;0.70;;;16.30;68.50;;;;;;5086373;28;20033;-61
2022/09/10 04:59:28;;;;;;;1.90;0.57;;;16.30;68.30;;;;;;5083892;28;20031;-61
2022/09/10 05:01:54;;;;;;;3.97;0.75;;;16.30;68.30;;;;;;5076067;28;20025;-61
2022/09/10 05:04:20;;;;;;;3.50;0.60;;;16.30;68.40;;;;;;5087654;28;20096;-61
2022/09/10 05:06:49;;;;;;;1.33;0.60;;;16.30;68.50;;;;;;5090143;28;20036;-61
2022/09/10 05:09:15;;;;;;;1.00;0.52;;;16.30;68.60;;;;;;5101846;28;20023;-60
2022/09/10 05:11:41;;;;;;;2.53;0.57;;;16.30;68.80;;;;;;5089734;28;20037;-62
2022/09/10 05:14:07;;;;;;;5.57;0.65;;;16.30;68.90;;;;;;5091789;28;20052;-61
2022/09/10 05:16:33;;;;;;;1.20;0.68;;;16.30;69.00;;;;;;5080918;28;20052;-61
2022/09/10 05:18:58;;;;;;;2.30;0.75;;;16.30;68.90;;;;;;5090249;28;20028;-60
2022/09/10 05:21:25;;;;;;;2.50;0.60;;;16.30;69.00;;;;;;5095476;28;20074;-61
2022/09/10 05:23:51;;;;;;;2.80;0.70;;;16.30;69.20;;;;;;5101094;28;20059;-60
2022/09/10 05:26:16;;;;;;;3.00;0.70;;;16.30;69.10;;;;;;5082812;28;20770;-62
2022/09/10 05:28:42;;;;;;;1.60;0.60;;;16.30;69.00;;;;;;5101771;28;20050;-61
2022/09/10 05:31:08;;;;;;;4.47;0.70;;;16.40;69.20;;;;;;5099281;28;20048;-60
2022/09/10 05:33:35;;;;;;;1.08;0.70;;;16.40;69.40;;;;;;5087809;28;20024;-61
2022/09/10 05:36:01;;;;;;;3.42;0.70;;;16.40;69.40;;;;;;5080067;28;20033;-61
2022/09/10 05:38:27;;;;;;;1.60;0.70;;;16.40;69.20;;;;;;5091947;28;20040;-62
2022/09/10 05:40:53;;;;;;;2.47;0.85;;;16.40;69.20;;;;;;5095737;28;20121;-61
2022/09/10 05:43:19;;;;;;;2.08;0.90;;;16.40;69.30;;;;;;5090462;28;20020;-62
2022/09/10 05:45:47;;;;;;;3.38;0.70;;;16.40;69.40;;;;;;5081728;28;20441;-61
2022/09/10 05:48:13;;;;;;;2.05;0.80;;;16.40;69.50;;;;;;5084250;28;20063;-61
2022/09/10 05:50:38;;;;;;;1.33;0.70;;;16.50;69.50;;;;;;5092010;28;20029;-61
2022/09/10 05:53:04;;;;;;;2.75;0.80;;;16.50;69.50;;;;;;5082694;28;20029;-61
2022/09/10 05:55:31;;;;;;;3.25;0.80;;;16.50;69.40;;;;;;5087573;28;20039;-61
2022/09/10 05:57:58;;;;;;;2.72;0.90;;;16.50;69.60;;;;;;5083668;28;20088;-61
2022/09/10 06:00:24;;;;;;;2.63;0.90;;;16.50;69.80;;;;;;5097318;28;20055;-61
2022/09/10 06:02:49;;;;;;;1.95;0.90;;;16.60;70.00;;;;;;5086519;28;20032;-61
2022/09/10 06:05:15;;;;;;;2.47;1.00;;;16.60;70.00;;;;;;5104822;28;20030;-62
2022/09/10 06:07:42;;;;;;;4.60;0.85;;;16.60;69.80;;;;;;5068654;28;20045;-61
2022/09/10 06:10:08;;;;;;;1.10;0.50;;;16.60;69.80;;;;;;5100188;28;20037;-62
2022/09/10 06:12:34;;;;;;;4.40;0.90;;;16.60;69.70;;;;;;5080603;28;20668;-61
2022/09/10 06:15:02;;;;;;;1.90;0.80;;;16.70;69.70;;;;;;5058186;28;20028;-60
2022/09/10 06:17:28;;;;;;;3.83;0.90;;;16.70;69.60;;;;;;5081078;28;20037;-60
2022/09/10 06:19:54;;;;;;;1.95;0.80;;;16.80;69.80;;;;;;5087299;28;20050;-60
2022/09/10 06:22:19;;;;;;;1.90;0.88;;;16.80;70.00;;;;;;5078885;28;20016;-61
2022/09/10 06:24:47;;;;;;;0.85;0.68;;;16.90;70.10;;;;;;5088306;28;20103;-60
2022/09/10 06:27:13;;;;;;;1.92;0.75;;;16.90;70.10;;;;;;5090605;28;20028;-61
2022/09/10 06:29:39;;;;;;;1.88;0.68;;;17.00;69.90;;;;;;5084570;28;20498;-60
2022/09/10 06:32:05;;;;;;;2.55;0.73;;;17.10;69.70;;;;;;5075213;28;20052;-61
2022/09/10 06:34:30;;;;;;;4.10;1.02;;;17.10;69.70;;;;;;5080373;28;20112;-59
2022/09/10 06:36:57;;;;;;;1.52;0.70;;;17.20;69.50;;;;;;5086018;28;20040;-60
2022/09/10 06:39:22;;;;;;;1.92;0.63;;;17.30;69.50;;;;;;5089590;28;20028;-60
2022/09/10 06:41:48;;;;;;;2.35;0.82;;;17.30;69.30;;;;;;5085154;28;20032;-60
2022/09/10 06:44:14;;;;;;;4.20;0.70;;;17.40;69.20;;;;;;5084115;28;20033;-59
2022/09/10 06:46:41;;;;;;;2.00;0.80;;;17.40;69.80;;;;;;5084378;28;20037;-61
2022/09/10 06:49:10;;;;;;;5.20;1.25;;;17.50;68.70;;;;;;5093584;28;20021;-60
2022/09/10 06:51:37;;;;;;;1.25;0.43;;;17.50;68.20;;;;;;5080649;28;20048;-60
2022/09/10 06:54:03;;;;;;;1.85;0.85;;;17.50;68.10;;;;;;5075669;28;20028;-60
2022/09/10 06:56:29;;;;;;;2.00;0.95;;;17.50;68.00;;;;;;5080705;28;20736;-61
2022/09/10 06:58:56;;;;;;;1.17;0.90;;;17.50;68.20;;;;;;5079638;28;20029;-60
2022/09/10 07:01:23;;;;;;;2.80;1.00;;;17.50;68.10;;;;;;5089830;28;20345;-60
2022/09/10 07:03:54;;;;;;;2.67;1.00;;;17.50;68.20;;;;;;5074353;28;20040;-60
2022/09/10 07:06:22;;;;;;;2.35;0.70;;;17.50;68.40;;;;;;5084056;28;20387;-60
2022/09/10 07:08:47;;;;;;;3.65;1.20;;;17.50;67.90;;;;;;5075352;28;20016;-60
2022/09/10 07:11:14;;;;;;;1.13;0.73;;;17.50;68.00;;;;;;5076901;28;20064;-60
2022/09/10 07:13:42;;;;;;;4.82;0.82;;;17.50;68.30;;;;;;5080234;28;20025;-62
2022/09/10 07:16:08;;;;;;;2.95;0.77;;;17.50;68.10;;;;;;5072507;28;20032;-60
2022/09/10 07:18:34;;;;;;;2.70;1.23;;;17.50;68.30;;;;;;5073891;28;20028;-61
2022/09/10 07:21:11;;;;;;;2.05;0.82;;;17.50;68.50;;;;;;5074904;28;20029;-61
2022/09/10 07:23:38;;;;;;;1.92;0.80;;;17.50;68.30;;;;;;5077174;28;20029;-60
2022/09/10 07:26:10;;;;;;;1.25;0.65;;;17.60;68.00;;;;;;5098980;28;20036;-60
2022/09/10 07:28:36;;;;;;;2.20;0.77;;;17.60;68.20;;;;;;5086751;28;20025;-60
2022/09/10 07:31:26;;;;;;;2.78;0.90;;;17.60;67.80;;;;;;5086299;28;20044;-62
2022/09/10 07:33:54;;;;;;;2.72;0.88;;;17.70;68.40;;;;;;5073924;28;20016;-60
2022/09/10 07:36:20;;;;;;;1.40;0.80;;;17.70;67.80;;;;;;5071050;28;20060;-61
2022/09/10 07:38:46;;;;;;;4.13;0.75;;;17.70;67.90;;;;;;5077758;28;20088;-61
2022/09/10 07:41:14;;;;;;;3.47;1.45;;;17.70;67.90;;;;;;5087444;28;20051;-60
2022/09/10 07:43:40;;;;;;;3.03;0.77;;;17.70;68.00;;;;;;5080595;28;20020;-61
2022/09/10 07:46:07;;;;;;;3.53;0.70;;;17.80;67.90;;;;;;5078540;28;20036;-61
2022/09/10 07:48:33;;;;;;;2.17;0.80;;;17.80;67.80;;;;;;5077516;28;20104;-60
2022/09/10 07:51:04;;;;;;;1.50;0.68;;;17.80;67.80;;;;;;5084322;28;20070;-60
2022/09/10 07:53:30;;;;;;;2.28;0.75;;;17.90;67.80;;;;;;5075877;28;20043;-60
2022/09/10 07:56:00;;;;;;;1.08;0.60;;;17.90;67.50;;;;;;5092435;28;20036;-60
2022/09/10 07:58:30;;;;;;;4.43;0.82;;;17.90;67.30;;;;;;5088338;28;20054;-61
2022/09/10 08:00:58;;;;;;;0.93;0.60;;;17.90;67.20;;;;;;5083801;28;20112;-60
2022/09/10 08:03:27;;;;;;;2.03;1.02;;;17.90;67.30;;;;;;5077701;28;20024;-62
2022/09/10 08:05:54;;;;;;;2.85;1.05;;;17.90;67.50;;;;;;5108327;28;20092;-61
2022/09/10 08:08:20;;;;;;;3.42;1.08;;;18.00;67.90;;;;;;5097008;28;20072;-60
2022/09/10 08:10:48;;;;;;;1.70;1.02;;;18.00;67.80;;;;;;5096165;28;20039;-63
2022/09/10 08:13:14;;;;;;;2.75;0.90;;;18.10;67.70;;;;;;5089080;28;20525;-60
2022/09/10 08:15:42;;;;;;;3.08;0.70;;;18.10;67.60;;;;;;5100649;28;20047;-61
2022/09/10 08:18:09;;;;;;;1.95;0.70;;;18.10;67.50;;;;;;5084502;28;20088;-60
2022/09/10 08:20:34;;;;;;;1.80;0.52;;;18.20;67.40;;;;;;5104477;28;20084;-61
2022/09/10 08:23:02;;;;;;;2.83;0.60;;;18.30;67.20;;;;;;5087254;28;20055;-62
2022/09/10 08:25:27;;;;;;;1.73;0.60;;;18.30;66.70;;;;;;5098025;28;20040;-62
2022/09/10 08:27:53;;;;;;;1.45;0.70;;;18.40;66.60;;;;;;5093390;28;20382;-62
2022/09/10 08:30:19;;;;;;;2.03;1.00;;;18.40;66.70;;;;;;5089106;28;20033;-62
2022/09/10 08:32:45;;;;;;;2.42;1.23;;;18.40;66.70;;;;;;5084127;28;20051;-62
2022/09/10 08:35:10;;;;;;;1.60;0.70;;;18.50;66.90;;;;;;5085641;28;20052;-62
2022/09/10 08:37:36;;;;;;;2.13;0.68;;;18.50;66.50;;;;;;5090079;28;20045;-61
2022/09/10 08:40:04;;;;;;;2.35;0.63;;;18.60;66.50;;;;;;5091961;28;20119;-61
2022/09/10 08:42:38;;;;;;;2.72;0.63;;;18.60;66.40;;;;;;5084187;28;20054;-61
2022/09/10 08:45:04;;;;;;;;;;;18.70;66.50;;;;;;5072379;28;20077;-60
2022/09/10 08:48:01;;;;;;;1.52;0.60;;;18.70;66.00;;;;;;5089893;28;19955;-61
2022/09/10 08:50:46;;;;;;;1.05;0.50;;;18.70;66.60;;;;;;5097411;28;20024;-63
2022/09/10 08:53:14;;;;;;;0.60;0.40;;;18.80;66.40;;;;;;5085942;28;20082;-62
2022/09/10 08:55:43;;;;;;;0.80;0.45;;;18.80;66.10;;;;;;5106456;28;20028;-62
2022/09/10 08:58:19;;;;;;;1.75;0.70;;;18.80;66.00;;;;;;5066146;28;20035;-62
2022/09/10 09:00:47;;;;;;;3.33;0.90;;;18.80;65.90;;;;;;5092190;28;20071;-61
2022/09/10 09:03:20;;;;;;;1.90;0.50;;;18.90;66.10;;;;;;5085927;28;20029;-61
2022/09/10 09:05:58;;;;;;;1.85;0.60;;;18.90;66.00;;;;;;5088987;28;20074;-63
2022/09/10 09:08:28;;;;;;;2.35;0.80;;;19.00;66.00;;;;;;5066612;28;20617;-62
2022/09/10 09:11:05;;;;;;;4.05;0.80;;;19.10;66.10;;;;;;5061831;28;20033;-62
2022/09/10 09:13:52;;;;;;;1.67;0.55;;;19.20;66.20;;;;;;5066628;28;20044;-62
2022/09/10 09:16:52;;;;;;;1.40;0.70;;;19.30;66.10;;;;;;5077394;28;20085;-62
2022/09/10 09:20:01;;;;;;;1.05;0.60;;;19.40;66.00;;;;;;5092900;28;20028;-60
2022/09/10 09:22:39;;;;;;;6.50;0.77;;;19.50;65.50;;;;;;5085453;28;20044;-61
2022/09/10 09:25:23;;;;;;;1.20;0.40;;;19.60;64.50;;;;;;5073047;28;20055;-62
2022/09/10 09:27:54;;;;;;;1.02;0.50;;;19.60;64.20;;;;;;5089739;28;20125;-62
2022/09/10 09:30:23;;;;;;;0.68;0.30;;;19.70;63.20;;;;;;5074242;28;20048;-61
2022/09/10 09:32:49;;;;;;;1.58;0.50;;;19.70;62.60;;;;;;5090165;28;20097;-60
2022/09/10 09:35:35;;;;;;;1.05;0.40;;;19.60;62.10;;;;;;5079051;28;20036;-61
2022/09/10 09:38:24;;;;;;;1.25;0.47;;;19.60;62.50;;;;;;5066256;28;20032;-62
2022/09/10 09:40:55;;;;;;;1.25;0.50;;;19.60;62.30;;;;;;5068847;28;20075;-61
2022/09/10 09:43:39;;;;;;;1.30;0.50;;;19.60;62.30;;;;;;5064154;28;20523;-61
2022/09/10 09:46:11;;;;;;;0.68;0.32;;;19.60;61.90;;;;;;5086149;28;20040;-61
2022/09/10 09:48:39;;;;;;;1.00;0.50;;;19.60;61.90;;;;;;5091081;28;20459;-62
2022/09/10 09:51:11;;;;;;;1.75;0.50;;;19.70;61.90;;;;;;5085957;28;20057;-62
2022/09/10 09:53:39;;;;;;;2.20;0.98;;;19.80;61.70;;;;;;5099993;28;20013;-60
2022/09/10 09:56:24;;;;;;;1.05;0.55;;;19.90;62.40;;;;;;5094308;28;20035;-61
2022/09/10 09:58:51;;;;;;;1.75;0.50;;;20.00;62.00;;;;;;5075929;28;20024;-62
2022/09/10 10:01:27;;;;;;;1.77;0.50;;;20.20;59.80;;;;;;5080814;28;20061;-62
2022/09/10 10:04:00;;;;;;;1.90;0.60;;;20.40;59.10;;;;;;5079119;28;20098;-61
2022/09/10 10:06:30;;;;;;;1.23;0.43;;;20.40;59.20;;;;;;5079946;28;20032;-60
2022/09/10 10:09:19;;;;;;;1.55;0.60;;;20.50;58.40;;;;;;5069076;28;20032;-60
2022/09/10 10:12:03;;;;;;;1.70;0.60;;;20.60;58.10;;;;;;5071905;28;20040;-60
2022/09/10 10:14:36;;;;;;;2.47;0.50;;;20.60;57.80;;;;;;5075810;28;20086;-62
2022/09/10 10:17:40;;;;;;;15.43;0.50;;;20.60;57.40;;;;;;5079507;28;20298;-62
2022/09/10 10:20:07;;;;;;;3.33;0.52;;;20.60;57.30;;;;;;5069107;28;20037;-62
2022/09/10 10:22:34;;;;;;;1.90;0.60;;;20.70;57.90;;;;;;5079965;28;20036;-61
2022/09/10 10:25:02;;;;;;;1.70;0.60;;;20.80;58.00;;;;;;5085276;28;20025;-60
2022/09/10 10:27:34;;;;;;;1.48;0.50;;;20.80;57.70;;;;;;5086828;28;20023;-60
2022/09/10 10:30:04;;;;;;;1.42;0.47;;;21.00;57.80;;;;;;5089165;28;20024;-60
2022/09/10 10:32:55;;;;;;;1.65;0.45;;;21.10;58.00;;;;;;5074321;28;20124;-60
2022/09/10 10:35:43;;;;;;;3.50;0.45;;;21.20;56.80;;;;;;5092172;28;20039;-60
2022/09/10 10:38:21;;;;;;;1.42;0.50;;;21.40;56.50;;;;;;5074019;28;20089;-62
2022/09/10 10:41:22;;;;;;;1.95;0.50;;;21.40;56.20;;;;;;5083886;28;20040;-61
2022/09/10 10:44:00;;;;;;;0.90;0.50;;;21.50;55.70;;;;;;5070908;28;20025;-60
2022/09/10 10:46:43;;;;;;;2.78;0.75;;;21.50;55.00;;;;;;5078887;28;20036;-63
2022/09/10 10:49:22;;;;;;;1.10;0.40;;;21.50;53.60;;;;;;5091687;28;20030;-61
2022/09/10 10:51:55;;;;;;;1.98;0.50;;;21.60;54.20;;;;;;5067782;28;20020;-61
2022/09/10 10:54:58;;;;;;;1.33;0.40;;;21.60;53.80;;;;;;5075306;28;20092;-61
2022/09/10 10:57:54;;;;;;;3.40;0.60;;;21.60;54.20;;;;;;5082514;28;20090;-61
2022/09/10 11:00:20;;;;;;;1.67;0.60;;;21.70;54.50;;;;;;5065480;28;20036;-61
2022/09/10 11:02:55;;;;;;;1.85;0.50;;;21.80;54.00;;;;;;5054899;28;20055;-62
2022/09/10 11:05:30;;;;;;;1.17;0.38;;;21.80;53.70;;;;;;5049145;28;20053;-61
2022/09/10 11:08:05;;;;;;;1.33;0.50;;;21.90;54.10;;;;;;5057294;28;20161;-62
2022/09/10 11:10:59;;;;;;;3.00;0.60;;;21.90;54.30;;;;;;5064716;28;20503;-60
2022/09/10 11:13:35;;;;;;;1.48;0.50;;;22.00;53.80;;;;;;5060142;28;20029;-61
2022/09/10 11:16:01;;;;;;;2.63;0.50;;;22.10;53.40;;;;;;5063825;28;20052;-60
2022/09/10 11:18:33;;;;;;;2.55;0.60;;;22.20;53.00;;;;;;5061014;28;20044;-61
2022/09/10 11:21:33;;;;;;;2.00;0.70;;;22.30;52.50;;;;;;5066572;28;20037;-63
2022/09/10 11:24:05;;;;;;;1.55;0.50;;;22.30;51.40;;;;;;5057231;28;20044;-60
2022/09/10 11:26:59;;;;;;;3.15;0.63;;;22.20;52.10;;;;;;5068542;28;20117;-61
2022/09/10 11:29:33;;;;;;;2.08;0.50;;;22.10;52.40;;;;;;5042069;28;20037;-61
2022/09/10 11:32:05;;;;;;;1.25;0.50;;;22.20;52.50;;;;;;5056548;28;20574;-61
2022/09/10 11:35:15;;;;;;;2.10;0.50;;;22.20;53.30;;;;;;5053275;28;20033;-62
2022/09/10 11:38:24;;;;;;;1.33;0.40;;;22.30;52.80;;;;;;5043258;28;20128;-63
2022/09/10 11:41:09;;;;;;;1.65;0.60;;;22.40;51.80;;;;;;5073357;28;20045;-63
2022/09/10 11:43:48;;;;;;;1.90;0.80;;;22.50;50.80;;;;;;5068397;28;20033;-62
2022/09/10 11:46:34;;;;;;;1.77;0.50;;;22.50;50.60;;;;;;5074568;28;20028;-63
2022/09/10 11:49:16;;;;;;;0.85;0.40;;;22.50;50.70;;;;;;5082443;28;20028;-64
2022/09/10 11:51:44;;;;;;;1.65;0.55;;;22.50;51.20;;;;;;5077818;28;20025;-63
2022/09/10 11:54:33;;;;;;;1.05;0.50;;;22.50;50.50;;;;;;5080991;28;20049;-64
2022/09/10 11:57:05;;;;;;;1.23;0.40;;;22.50;51.10;;;;;;5066543;28;20052;-63
2022/09/10 11:59:57;;;;;;;2.00;0.50;;;22.50;51.30;;;;;;5067603;28;20035;-61
2022/09/10 12:02:39;;;;;;;3.88;0.50;;;22.50;51.90;;;;;;5077329;28;20040;-61
2022/09/10 12:05:24;;;;;;;2.13;0.68;;;22.40;52.00;;;;;;5079783;28;20055;-61
2022/09/10 12:08:16;;;;;;;0.73;0.30;;;22.20;52.30;;;;;;5076090;28;20479;-61
2022/09/10 12:11:03;;;;;;;0.52;0.40;;;22.00;52.90;;;;;;5079957;28;20379;-61
2022/09/10 12:13:32;;;;;;;1.75;0.60;;;21.80;53.60;;;;;;5079185;28;20048;-61
2022/09/10 12:16:03;;;;;;;1.17;0.40;;;21.50;54.30;;;;;;5082001;28;20140;-60
2022/09/10 12:18:43;;;;;;;1.15;0.47;;;21.30;54.90;;;;;;5079346;28;20111;-60
2022/09/10 12:21:23;;;;;;;1.80;0.60;;;21.20;56.50;;;;;;5077509;28;20067;-61
2022/09/10 12:23:49;;;;;;;1.27;0.60;;;21.20;57.40;;;;;;5094569;28;20025;-61
2022/09/10 12:26:18;;;;;;;3.58;0.60;;;21.30;57.50;;;;;;5076439;28;20029;-61
2022/09/10 12:28:47;;;;;;;2.85;0.60;;;21.30;57.90;;;;;;5086245;28;20033;-61
2022/09/10 12:31:15;;;;;;;2.08;0.60;;;21.30;57.60;;;;;;5098863;28;20050;-62
2022/09/10 12:33:41;;;;;;;1.02;0.60;;;21.40;57.90;;;;;;5083397;28;20028;-60
2022/09/10 12:36:08;;;;;;;1.63;0.60;;;21.40;58.30;;;;;;5089092;28;20089;-61
2022/09/10 12:39:11;;;;;;;2.05;0.60;;;21.30;58.40;;;;;;5076259;28;20044;-61
2022/09/10 12:41:39;;;;;;;1.58;0.60;;;21.30;59.50;;;;;;5094143;28;20033;-60
2022/09/10 12:44:24;;;;;;;5.03;0.60;;;21.20;58.60;;;;;;5076707;28;20033;-61
2022/09/10 12:47:14;;;;;;;2.30;0.80;;;21.20;59.30;;;;;;5078376;28;20028;-60
2022/09/10 12:49:56;;;;;;;1.58;0.57;;;21.10;59.30;;;;;;4982232;28;20737;-60
2022/09/10 12:52:44;;;;;;;1.02;0.50;;;21.00;59.10;;;;;;5073645;28;20020;-61
2022/09/10 12:55:13;;;;;;;1.65;0.70;;;21.10;62.50;;;;;;5071163;28;20036;-61
2022/09/10 12:57:51;;;;;;;1.45;0.47;;;21.30;60.90;;;;;;5079999;28;20472;-60
2022/09/10 13:00:20;;;;;;;1.23;0.50;;;21.40;61.30;;;;;;5084424;28;20024;-62
2022/09/10 13:02:57;;;;;;;1.35;0.60;;;21.70;61.30;;;;;;5085581;28;20111;-62
2022/09/10 13:05:47;;;;;;;1.45;0.40;;;21.90;61.40;;;;;;5076516;28;20036;-63
2022/09/10 13:08:32;;;;;;;0.82;0.40;;;22.20;61.80;;;;;;5077719;28;20036;-62
2022/09/10 13:10:58;;;;;;;1.58;0.70;;;22.60;60.80;;;;;;5091632;28;20029;-61
2022/09/10 13:13:30;;;;;;;1.90;0.65;;;22.90;59.40;;;;;;5080004;28;20032;-62